• Join FlightAware (Why Join?)
  • Login
  • US Flag 
07:33PM EST


 

Airport Tracker/Info


-or-


 

Live Flight TrackerFlight Track Log ✈ KAP66 ✈ 01-May-2013 ✈ KMVY - KACK

Flight Track Log - Related Links

Times and Time Zones

All times are in EDT time to prevent confusion due to time zone crossing. See the KAP66 flight status page for this flight to view local times or setup timezone preferences in your user account.

Time Position Orientation Groundspeed Altitude Reporting Facility
EDT Latitude Longitude Course Direction KTS MPH feet Rate Location/Type
07:45AM 41.3420 -70.4094 105° East  Level Estimated
07:46AM 41.3309 -70.3689 110° East  Level FlightAware Approximate
07:47AM 41.3207 -70.3280 112° Southeast  Level Estimated
07:48AM 41.3086 -70.2880 112° Southeast  Level FlightAware Approximate
07:49AM 41.2965 -70.2481 112° Southeast  Level FlightAware Approximate
07:50AM 41.2844 -70.2082 112° Southeast  Level FlightAware Approximate
07:51AM 41.2722 -70.1682 112° Southeast  Level FlightAware Approximate
07:52AM 41.2648 -70.1263 102° East  Level Estimated
07:53AM 41.2567 -70.0846 104° East  Level FlightAware Approximate
07:54AM 41.2531 -70.0603 102° East  Level Estimated
07:55AM 41.2531 -70.0603 102° East  Level Estimated
07:56AM 41.2531 -70.0603 102° East  Level Estimated
07:57AM 41.2531 -70.0603 102° East  Level Estimated
07:58AM 41.2531 -70.0603 102° East  Level Estimated
07:59AM 41.2531 -70.0603 102° East  Level Estimated
08:00AM 41.2531 -70.0603 102° East  Level Estimated
08:01AM 41.2531 -70.0603 102° East  Level Estimated
08:02AM 41.2531 -70.0603 102° East  Level Estimated
08:03AM 41.2531 -70.0603 102° East  Level Estimated
08:04AM 41.2531 -70.0603 102° East  Level Estimated